createdAt,value
2022-10-19T00:01:47.949Z,89.80
2022-10-19T00:03:54.032Z,89.70
2022-10-19T00:05:56.968Z,89.50
2022-10-19T00:08:01.738Z,89.10
2022-10-19T00:10:05.839Z,89.40
2022-10-19T00:12:08.650Z,89.00
2022-10-19T00:14:14.974Z,88.80
2022-10-19T00:16:18.872Z,88.80
2022-10-19T00:18:23.357Z,88.60
2022-10-19T00:20:26.281Z,88.70
2022-10-19T00:22:29.268Z,88.70
2022-10-19T00:24:32.322Z,88.80
2022-10-19T00:26:35.555Z,88.70
2022-10-19T00:28:38.758Z,88.30
2022-10-19T00:30:41.673Z,88.30
2022-10-19T00:32:44.574Z,88.30
2022-10-19T00:34:48.895Z,88.30
2022-10-19T00:36:51.738Z,88.10
2022-10-19T00:38:55.810Z,88.50
2022-10-19T00:40:58.741Z,88.50
2022-10-19T00:43:01.566Z,88.40
2022-10-19T00:45:12.411Z,88.40
2022-10-19T00:47:15.839Z,88.20
2022-10-19T00:49:21.218Z,87.80
2022-10-19T00:51:27.215Z,87.80
2022-10-19T00:53:32.317Z,87.60
2022-10-19T00:55:35.719Z,87.20
2022-10-19T00:57:38.685Z,87.20
2022-10-19T00:59:43.332Z,87.10
2022-10-19T01:01:47.429Z,87.60
2022-10-19T01:03:50.318Z,87.60
2022-10-19T01:05:53.232Z,87.50
2022-10-19T01:07:58.473Z,87.70
2022-10-19T01:10:02.177Z,87.90
2022-10-19T01:12:10.122Z,88.00
2022-10-19T01:14:29.665Z,88.20
2022-10-19T01:16:46.783Z,88.50
2022-10-19T01:18:57.301Z,88.40
2022-10-19T01:21:24.333Z,88.40
2022-10-19T01:23:55.496Z,88.60
2022-10-19T01:26:11.344Z,88.30
2022-10-19T01:28:27.018Z,88.30
2022-10-19T01:30:46.186Z,88.40
2022-10-19T01:33:02.596Z,88.60
2022-10-19T01:35:11.803Z,88.70
2022-10-19T01:37:21.777Z,88.50
2022-10-19T01:39:29.960Z,88.30
2022-10-19T01:41:37.362Z,88.10
2022-10-19T01:43:46.594Z,88.20
2022-10-19T01:45:55.063Z,88.20
2022-10-19T01:48:03.100Z,88.00
2022-10-19T01:50:10.951Z,87.80
2022-10-19T01:52:18.153Z,88.20
2022-10-19T01:54:23.582Z,88.30
2022-10-19T01:56:29.351Z,88.30
2022-10-19T01:58:35.883Z,88.20
2022-10-19T02:00:42.680Z,88.10
2022-10-19T02:02:50.664Z,88.30
2022-10-19T02:04:54.904Z,88.10
2022-10-19T02:06:58.982Z,88.30
2022-10-19T02:09:01.879Z,88.20
2022-10-19T02:11:05.657Z,88.70
2022-10-19T02:13:10.456Z,88.70
2022-10-19T02:15:18.705Z,88.80
2022-10-19T02:17:25.797Z,88.90
2022-10-19T02:19:30.109Z,88.90
2022-10-19T02:21:33.378Z,88.90
2022-10-19T02:23:36.230Z,88.90
2022-10-19T02:25:39.163Z,88.90
2022-10-19T02:27:43.298Z,88.80
2022-10-19T02:29:46.638Z,89.00
2022-10-19T02:31:49.890Z,89.10
2022-10-19T02:33:53.052Z,89.00
2022-10-19T02:35:58.336Z,89.00
2022-10-19T02:38:02.745Z,88.80
2022-10-19T02:40:07.191Z,88.90
2022-10-19T02:42:14.001Z,88.60
2022-10-19T02:44:21.200Z,88.60
2022-10-19T02:46:31.221Z,88.90
2022-10-19T02:48:35.740Z,88.50
2022-10-19T02:50:38.990Z,88.60
2022-10-19T02:52:43.363Z,88.50
2022-10-19T02:54:46.689Z,88.40
2022-10-19T02:56:49.639Z,88.40
2022-10-19T02:58:52.552Z,88.40
2022-10-19T03:00:56.353Z,88.30
2022-10-19T03:02:59.215Z,88.40
2022-10-19T03:05:02.021Z,88.30
2022-10-19T03:07:04.970Z,88.30
2022-10-19T03:09:09.614Z,88.30
2022-10-19T03:11:12.635Z,88.30
2022-10-19T03:13:15.456Z,88.40
2022-10-19T03:15:19.787Z,88.30
2022-10-19T03:17:22.643Z,88.40
2022-10-19T03:19:25.717Z,88.40
2022-10-19T03:21:28.584Z,88.30
2022-10-19T03:23:31.454Z,88.30
2022-10-19T03:25:35.957Z,88.50
2022-10-19T03:27:38.823Z,88.50
2022-10-19T03:29:41.743Z,88.50
2022-10-19T03:31:44.654Z,88.50
2022-10-19T03:33:47.501Z,88.70
2022-10-19T03:35:50.408Z,88.90
2022-10-19T03:37:54.322Z,88.70
2022-10-19T03:39:57.183Z,88.90
2022-10-19T03:42:02.096Z,88.90
2022-10-19T03:44:05.601Z,88.90
2022-10-19T03:46:08.571Z,89.20
2022-10-19T03:48:11.394Z,89.00
2022-10-19T03:50:16.902Z,89.10
2022-10-19T03:52:20.245Z,88.90
2022-10-19T03:54:26.499Z,89.10
2022-10-19T03:56:32.004Z,89.00
2022-10-19T03:58:38.486Z,89.20
2022-10-19T04:00:41.345Z,89.30
2022-10-19T04:02:44.207Z,89.40
2022-10-19T04:04:47.020Z,89.30
2022-10-19T04:06:51.185Z,89.30
2022-10-19T04:08:54.359Z,89.40
2022-10-19T04:11:01.496Z,89.40
2022-10-19T04:13:04.433Z,89.50
2022-10-19T04:15:10.262Z,89.30
2022-10-19T04:17:13.085Z,89.50
2022-10-19T04:19:17.295Z,89.40
2022-10-19T04:21:25.577Z,89.50
2022-10-19T04:23:32.270Z,89.50
2022-10-19T04:25:35.164Z,89.60
2022-10-19T04:27:38.087Z,89.60
2022-10-19T04:29:40.875Z,89.60
2022-10-19T04:31:47.451Z,89.70
2022-10-19T04:33:50.295Z,89.90
2022-10-19T04:35:59.183Z,90.00
2022-10-19T04:38:02.018Z,90.10
2022-10-19T04:40:05.997Z,89.80
2022-10-19T04:42:08.844Z,90.00
2022-10-19T04:44:11.923Z,89.90
2022-10-19T04:46:16.705Z,89.80
2022-10-19T04:48:21.066Z,90.10
2022-10-19T04:50:24.377Z,90.00
2022-10-19T04:52:27.195Z,90.20
2022-10-19T04:54:30.269Z,90.30
2022-10-19T04:56:33.329Z,90.30
2022-10-19T04:58:36.473Z,90.20
2022-10-19T05:00:39.799Z,90.50
2022-10-19T05:02:44.726Z,90.30
2022-10-19T05:04:50.308Z,90.40
2022-10-19T05:06:53.243Z,90.50
2022-10-19T05:08:56.353Z,90.60
2022-10-19T05:11:03.054Z,90.60
2022-10-19T05:13:06.518Z,90.70
2022-10-19T05:15:10.471Z,90.80
2022-10-19T05:17:13.660Z,90.80
2022-10-19T05:19:16.584Z,90.70
2022-10-19T05:21:21.815Z,90.70
2022-10-19T05:23:24.633Z,90.80
2022-10-19T05:25:27.516Z,90.80
2022-10-19T05:27:30.378Z,91.00
2022-10-19T05:29:33.881Z,91.20
2022-10-19T05:31:36.731Z,91.30
2022-10-19T05:33:40.576Z,91.20
2022-10-19T05:35:43.492Z,91.20
2022-10-19T05:37:47.663Z,91.20
2022-10-19T05:39:50.478Z,91.10
2022-10-19T05:41:53.460Z,91.50
2022-10-19T05:43:57.860Z,91.10
2022-10-19T05:46:05.221Z,91.00
2022-10-19T05:48:08.325Z,91.00
2022-10-19T05:50:11.246Z,91.00
2022-10-19T05:52:15.142Z,90.90
2022-10-19T05:54:21.770Z,90.90
2022-10-19T05:56:28.514Z,91.00
2022-10-19T05:58:31.536Z,91.00
2022-10-19T06:00:38.737Z,90.90
2022-10-19T06:02:42.026Z,91.00
2022-10-19T06:04:44.938Z,90.90
2022-10-19T06:06:47.900Z,90.90
2022-10-19T06:08:51.819Z,90.90
2022-10-19T06:11:06.254Z,91.00
2022-10-19T06:13:09.968Z,91.00
2022-10-19T06:15:12.839Z,91.00
2022-10-19T06:17:16.169Z,91.00
2022-10-19T06:19:19.139Z,90.90
2022-10-19T06:21:23.739Z,90.90
2022-10-19T06:23:26.642Z,91.00
2022-10-19T06:25:30.372Z,91.00
2022-10-19T06:27:34.784Z,91.00
2022-10-19T06:29:37.956Z,91.00
2022-10-19T06:31:40.903Z,91.00
2022-10-19T06:33:48.632Z,91.00
2022-10-19T06:35:52.404Z,91.10
2022-10-19T06:37:57.786Z,91.20
2022-10-19T06:40:04.740Z,91.20
2022-10-19T06:42:09.860Z,91.20
2022-10-19T06:44:14.130Z,91.20
2022-10-19T06:46:20.525Z,91.20
2022-10-19T06:48:23.837Z,91.20
2022-10-19T06:50:26.921Z,91.20
2022-10-19T06:52:29.928Z,91.20
2022-10-19T06:54:32.977Z,91.10
2022-10-19T06:56:36.129Z,91.10
2022-10-19T06:58:39.711Z,91.20
2022-10-19T07:00:43.997Z,91.20
2022-10-19T07:02:46.865Z,91.10
2022-10-19T07:04:49.826Z,91.10
2022-10-19T07:06:52.683Z,91.20
2022-10-19T07:08:55.537Z,91.00
2022-10-19T07:11:00.675Z,91.20
2022-10-19T07:13:03.569Z,91.00
2022-10-19T07:15:07.466Z,91.30
2022-10-19T07:17:12.795Z,91.40
2022-10-19T07:19:15.785Z,91.40
2022-10-19T07:21:19.879Z,91.30
2022-10-19T07:23:22.697Z,91.30
2022-10-19T07:25:26.703Z,91.10
2022-10-19T07:27:32.780Z,91.20
2022-10-19T07:29:38.298Z,91.10
2022-10-19T07:31:41.519Z,91.10
2022-10-19T07:33:45.845Z,91.20
2022-10-19T07:35:48.670Z,91.10
2022-10-19T07:37:51.534Z,91.00
2022-10-19T07:39:54.360Z,91.10
2022-10-19T07:41:57.359Z,91.00
2022-10-19T07:44:00.217Z,91.10
2022-10-19T07:46:04.939Z,91.10
2022-10-19T07:48:08.005Z,91.20
2022-10-19T07:50:12.490Z,91.30
2022-10-19T07:52:15.533Z,91.40
2022-10-19T07:54:18.430Z,91.40
2022-10-19T07:56:23.209Z,91.40
2022-10-19T07:58:26.184Z,91.40
2022-10-19T08:00:29.790Z,91.30
2022-10-19T08:02:39.670Z,91.20
2022-10-19T08:05:01.763Z,91.30
2022-10-19T08:07:08.331Z,91.30
2022-10-19T08:09:22.811Z,91.20
2022-10-19T08:11:35.851Z,91.20
2022-10-19T08:13:40.556Z,91.20
2022-10-19T08:15:43.386Z,91.10
2022-10-19T08:17:46.456Z,91.10
2022-10-19T08:19:49.654Z,91.00
2022-10-19T08:21:53.000Z,90.90
2022-10-19T08:23:57.428Z,90.90
2022-10-19T08:26:00.306Z,90.90
2022-10-19T08:28:03.140Z,90.90
2022-10-19T08:30:06.599Z,90.80
2022-10-19T08:32:09.439Z,90.50
2022-10-19T08:34:12.838Z,90.20
2022-10-19T08:36:15.644Z,90.00
2022-10-19T08:38:18.614Z,89.50
2022-10-19T08:40:26.140Z,89.10
2022-10-19T08:42:40.948Z,89.00
2022-10-19T08:44:59.519Z,88.90
2022-10-19T08:47:14.195Z,88.50
2022-10-19T08:49:20.245Z,87.90
2022-10-19T08:51:23.697Z,87.40
2022-10-19T08:53:36.783Z,87.00
2022-10-19T08:55:53.413Z,87.10
2022-10-19T08:58:04.386Z,87.30
2022-10-19T09:00:14.317Z,87.00
2022-10-19T09:02:21.404Z,86.70
2022-10-19T09:04:29.578Z,86.40
2022-10-19T09:06:41.110Z,86.20
2022-10-19T09:08:44.283Z,85.70
2022-10-19T09:10:51.544Z,85.10
2022-10-19T09:12:59.413Z,85.30
2022-10-19T09:15:04.453Z,85.00
2022-10-19T09:17:13.808Z,84.90
2022-10-19T09:19:25.458Z,85.20
2022-10-19T09:21:40.906Z,85.10
2022-10-19T09:23:56.355Z,84.60
2022-10-19T09:26:00.536Z,84.50
2022-10-19T09:28:15.576Z,83.90
2022-10-19T09:30:20.997Z,84.00
2022-10-19T09:32:27.530Z,83.60
2022-10-19T09:34:35.896Z,83.10
2022-10-19T09:36:50.347Z,82.50
2022-10-19T09:38:53.742Z,83.20
2022-10-19T09:40:58.826Z,83.00
2022-10-19T09:43:19.375Z,82.60
2022-10-19T09:45:33.571Z,82.90
2022-10-19T09:47:37.896Z,83.00
2022-10-19T09:49:43.212Z,83.00
2022-10-19T09:51:51.712Z,82.50
2022-10-19T09:53:56.373Z,82.30
2022-10-19T09:56:01.536Z,82.40
2022-10-19T09:58:07.778Z,82.00
2022-10-19T10:00:19.465Z,81.70
2022-10-19T10:02:29.180Z,82.30
2022-10-19T10:04:32.180Z,82.00
2022-10-19T10:06:36.235Z,82.20
2022-10-19T10:08:45.243Z,81.60
2022-10-19T10:10:53.909Z,81.40
2022-10-19T10:12:59.741Z,81.80
2022-10-19T10:15:05.416Z,81.40
2022-10-19T10:17:19.015Z,80.80
2022-10-19T10:19:27.514Z,80.60
2022-10-19T10:21:34.544Z,80.80
2022-10-19T10:23:37.816Z,80.60
2022-10-19T10:25:49.669Z,80.10
2022-10-19T10:28:01.715Z,79.70
2022-10-19T10:30:11.293Z,80.30
2022-10-19T10:32:18.987Z,79.80
2022-10-19T10:34:45.625Z,80.00
2022-10-19T10:36:55.110Z,78.80
2022-10-19T10:39:06.021Z,78.60
2022-10-19T10:41:15.445Z,79.00
2022-10-19T10:43:22.383Z,78.50
2022-10-19T10:45:33.352Z,77.60
2022-10-19T10:47:40.424Z,78.40
2022-10-19T10:49:45.174Z,77.90
2022-10-19T10:51:53.098Z,77.70
2022-10-19T10:54:10.381Z,78.40
2022-10-19T10:56:24.946Z,78.60
2022-10-19T10:58:36.968Z,77.70
2022-10-19T11:00:43.203Z,78.20
2022-10-19T11:02:51.016Z,78.00
2022-10-19T11:05:00.525Z,78.00
2022-10-19T11:07:13.773Z,78.10
2022-10-19T11:09:25.546Z,77.80
2022-10-19T11:11:36.653Z,78.10
2022-10-19T11:13:47.699Z,78.10
2022-10-19T11:15:57.723Z,78.00
2022-10-19T11:18:11.937Z,78.70
2022-10-19T11:20:16.986Z,78.10
2022-10-19T11:22:28.321Z,77.70
2022-10-19T11:24:46.402Z,77.90
2022-10-19T11:27:06.946Z,77.90
2022-10-19T11:29:26.865Z,77.40
2022-10-19T11:31:40.629Z,76.70
2022-10-19T11:33:56.151Z,77.00
2022-10-19T11:36:12.947Z,76.90
2022-10-19T11:38:37.172Z,76.90
2022-10-19T11:40:59.643Z,77.20
2022-10-19T11:43:16.641Z,77.60
2022-10-19T11:45:33.382Z,77.10
2022-10-19T11:47:51.880Z,77.30
2022-10-19T11:50:05.411Z,76.70
2022-10-19T11:52:17.355Z,77.10
2022-10-19T11:54:38.896Z,76.90
2022-10-19T11:57:03.293Z,76.80
2022-10-19T11:59:16.818Z,76.80
2022-10-19T12:01:31.938Z,77.10
2022-10-19T12:04:01.832Z,76.50
2022-10-19T12:06:12.662Z,75.90
2022-10-19T12:08:33.412Z,75.70
2022-10-19T12:10:48.939Z,75.40
2022-10-19T12:12:54.526Z,76.00
2022-10-19T12:15:06.128Z,76.00
2022-10-19T12:19:21.575Z,75.60
2022-10-19T12:21:27.418Z,75.50
2022-10-19T12:23:35.105Z,75.60
2022-10-19T12:25:41.390Z,75.30
2022-10-19T12:27:46.858Z,75.30
2022-10-19T12:29:50.567Z,75.50
2022-10-19T12:31:54.735Z,75.50
2022-10-19T12:34:03.381Z,75.20
2022-10-19T12:36:18.389Z,75.10
2022-10-19T12:38:27.216Z,75.10
2022-10-19T12:40:41.049Z,75.40
2022-10-19T12:42:52.799Z,74.90
2022-10-19T12:45:14.736Z,74.70
2022-10-19T12:47:20.614Z,74.20
2022-10-19T12:49:38.411Z,74.00
2022-10-19T12:51:47.879Z,74.60
2022-10-19T12:53:51.120Z,74.10
2022-10-19T12:56:01.279Z,74.10
2022-10-19T12:58:06.515Z,74.40
2022-10-19T13:00:21.473Z,74.40
2022-10-19T13:02:29.034Z,74.30
2022-10-19T13:04:34.150Z,74.40
2022-10-19T13:06:39.426Z,74.40
2022-10-19T13:08:49.096Z,74.40
2022-10-19T13:11:05.846Z,73.90
2022-10-19T13:13:51.082Z,74.10
2022-10-19T13:15:54.284Z,74.40
2022-10-19T13:17:57.175Z,74.50
2022-10-19T13:20:33.882Z,73.90
2022-10-19T13:22:37.409Z,74.60
2022-10-19T13:24:42.025Z,74.50
2022-10-19T13:26:45.357Z,74.40
2022-10-19T13:28:54.846Z,74.50
2022-10-19T13:31:06.987Z,74.80
2022-10-19T13:33:55.047Z,75.00
2022-10-19T13:36:09.179Z,74.70
2022-10-19T13:38:26.317Z,74.60
2022-10-19T13:40:32.216Z,75.00
2022-10-19T13:42:35.971Z,75.50
2022-10-19T13:44:47.186Z,74.10
2022-10-19T13:47:02.874Z,75.80
2022-10-19T13:49:35.499Z,75.40
2022-10-19T13:51:49.389Z,75.40
2022-10-19T13:54:02.627Z,75.20
2022-10-19T13:56:32.625Z,74.80
2022-10-19T13:59:03.893Z,75.10
2022-10-19T14:01:25.676Z,75.30
2022-10-19T14:03:41.804Z,75.60
2022-10-19T14:06:13.270Z,75.80
2022-10-19T14:08:31.203Z,75.20
2022-10-19T14:10:56.186Z,75.40
2022-10-19T14:13:00.384Z,75.30
2022-10-19T14:15:15.218Z,74.90
2022-10-19T14:17:20.567Z,75.30
2022-10-19T14:19:27.904Z,75.60
2022-10-19T14:21:32.474Z,75.90
2022-10-19T14:23:37.131Z,75.40
2022-10-19T14:25:40.303Z,75.00
2022-10-19T14:27:45.339Z,75.50
2022-10-19T14:29:51.794Z,75.10
2022-10-19T14:31:54.972Z,74.80
2022-10-19T14:34:03.527Z,74.60
2022-10-19T14:36:08.140Z,75.40
2022-10-19T14:38:21.219Z,75.40
2022-10-19T14:40:28.179Z,74.70
2022-10-19T14:42:40.431Z,75.50
2022-10-19T14:44:45.131Z,75.20
2022-10-19T14:46:50.077Z,74.60
2022-10-19T14:48:53.281Z,74.50
2022-10-19T14:50:58.471Z,74.70
2022-10-19T14:53:07.383Z,74.90
2022-10-19T14:55:19.216Z,75.10
2022-10-19T14:57:27.464Z,75.00
2022-10-19T14:59:36.090Z,74.70
2022-10-19T15:01:39.196Z,74.40
2022-10-19T15:03:47.998Z,74.40
2022-10-19T15:05:57.127Z,74.60
2022-10-19T15:08:08.548Z,74.80
2022-10-19T15:10:21.852Z,74.60
2022-10-19T15:12:29.390Z,74.90
2022-10-19T15:14:34.455Z,75.00
2022-10-19T15:16:45.834Z,74.80
2022-10-19T15:18:52.284Z,75.00
2022-10-19T15:21:12.277Z,75.10
2022-10-19T15:23:36.107Z,75.40
2022-10-19T15:25:38.961Z,75.30
2022-10-19T15:27:46.769Z,75.30
2022-10-19T15:29:56.028Z,75.00
2022-10-19T15:32:14.750Z,74.90
2022-10-19T15:34:25.424Z,74.60
2022-10-19T15:36:30.309Z,73.90
2022-10-19T15:38:34.718Z,74.30
2022-10-19T15:40:40.508Z,74.30
2022-10-19T15:42:46.956Z,74.20
2022-10-19T15:44:49.838Z,74.40
2022-10-19T15:47:19.188Z,74.10
2022-10-19T15:49:55.602Z,74.60
2022-10-19T15:51:58.707Z,74.30
2022-10-19T15:54:04.108Z,74.40
2022-10-19T15:56:07.694Z,74.60
2022-10-19T15:58:11.553Z,75.00
2022-10-19T16:00:16.903Z,75.10
2022-10-19T16:02:20.254Z,75.10
2022-10-19T16:04:23.421Z,75.00
2022-10-19T16:06:30.699Z,75.30
2022-10-19T16:08:33.969Z,75.20
2022-10-19T16:10:37.086Z,74.80
2022-10-19T16:12:40.433Z,75.00
2022-10-19T16:14:43.704Z,74.90
2022-10-19T16:16:47.092Z,75.10
2022-10-19T16:18:50.316Z,75.10
2022-10-19T16:20:53.548Z,75.20
2022-10-19T16:22:58.544Z,75.10
2022-10-19T16:25:01.550Z,75.20
2022-10-19T16:27:04.717Z,74.80
2022-10-19T16:29:07.874Z,74.90
2022-10-19T16:31:11.317Z,75.00
2022-10-19T16:33:14.556Z,75.10
2022-10-19T16:35:17.970Z,74.90
2022-10-19T16:37:21.431Z,75.00
2022-10-19T16:39:28.530Z,74.70
2022-10-19T16:41:32.504Z,74.50
2022-10-19T16:43:35.997Z,74.60
2022-10-19T16:45:44.005Z,74.90
2022-10-19T16:47:50.814Z,75.00
2022-10-19T16:49:59.870Z,75.30
2022-10-19T16:52:02.828Z,75.30
2022-10-19T16:54:07.508Z,75.20
2022-10-19T16:56:13.461Z,75.50
2022-10-19T16:58:16.371Z,75.40
2022-10-19T17:00:19.423Z,75.30
2022-10-19T17:02:23.144Z,75.40
2022-10-19T17:04:26.141Z,75.50
2022-10-19T17:06:29.806Z,75.30
2022-10-19T17:08:37.268Z,75.30
2022-10-19T17:10:47.527Z,75.50
2022-10-19T17:12:51.756Z,75.40
2022-10-19T17:15:02.978Z,75.30
2022-10-19T17:17:18.166Z,75.60
2022-10-19T17:19:21.185Z,75.40
2022-10-19T17:21:26.846Z,75.50
2022-10-19T17:23:29.799Z,75.70
2022-10-19T17:25:33.094Z,75.70
2022-10-19T17:27:36.046Z,75.60
2022-10-19T17:29:40.409Z,75.80
2022-10-19T17:31:44.300Z,76.00
2022-10-19T17:33:49.661Z,75.70
2022-10-19T17:35:58.598Z,75.70
2022-10-19T17:38:01.632Z,75.60
2022-10-19T17:40:07.486Z,76.00
2022-10-19T17:42:10.887Z,76.00
2022-10-19T17:44:16.640Z,75.50
2022-10-19T17:46:23.938Z,75.90
2022-10-19T17:48:29.434Z,75.90
2022-10-19T17:50:32.468Z,76.00
2022-10-19T17:52:35.741Z,75.90
2022-10-19T17:54:48.901Z,76.20
2022-10-19T17:57:07.741Z,75.60
2022-10-19T17:59:14.036Z,76.20
2022-10-19T18:01:26.789Z,76.30
2022-10-19T18:03:44.307Z,76.30
2022-10-19T18:05:57.019Z,76.70
2022-10-19T18:08:00.428Z,76.70
2022-10-19T18:10:08.358Z,76.70
2022-10-19T18:12:16.094Z,76.70
2022-10-19T18:14:19.429Z,76.70
2022-10-19T18:16:29.000Z,76.60
2022-10-19T18:18:37.027Z,76.90
2022-10-19T18:20:43.285Z,76.80
2022-10-19T18:22:46.771Z,77.00
2022-10-19T18:24:53.049Z,76.70
2022-10-19T18:27:05.789Z,76.90
2022-10-19T18:29:16.435Z,76.50
2022-10-19T18:31:24.128Z,77.00
2022-10-19T18:33:30.227Z,76.80
2022-10-19T18:35:38.279Z,76.50
2022-10-19T18:37:43.935Z,76.90
2022-10-19T18:39:49.035Z,76.50
2022-10-19T18:41:54.640Z,76.80
2022-10-19T18:44:05.424Z,76.90
2022-10-19T18:46:12.158Z,77.00
2022-10-19T18:48:19.637Z,77.00
2022-10-19T18:50:22.940Z,76.70
2022-10-19T18:52:30.334Z,76.80
2022-10-19T18:54:33.193Z,76.90
2022-10-19T18:56:39.408Z,77.20
2022-10-19T18:58:42.515Z,77.10
2022-10-19T19:00:45.876Z,77.30
2022-10-19T19:02:54.314Z,77.20
2022-10-19T19:04:57.383Z,77.40
2022-10-19T19:07:00.419Z,77.30
2022-10-19T19:09:08.180Z,77.40
2022-10-19T19:11:12.025Z,78.30
2022-10-19T19:13:14.918Z,77.50
2022-10-19T19:15:18.662Z,77.50
2022-10-19T19:17:21.603Z,77.50
2022-10-19T19:19:27.419Z,77.60
2022-10-19T19:21:31.646Z,77.60
2022-10-19T19:23:34.489Z,77.60
2022-10-19T19:25:40.548Z,77.40
2022-10-19T19:27:43.587Z,77.50
2022-10-19T19:29:46.532Z,77.70
2022-10-19T19:31:49.958Z,77.50
2022-10-19T19:33:53.547Z,77.60
2022-10-19T19:35:56.457Z,77.70
2022-10-19T19:37:59.310Z,77.70
2022-10-19T19:40:02.223Z,78.00
2022-10-19T19:42:06.549Z,77.80
2022-10-19T19:44:09.651Z,77.70
2022-10-19T19:46:15.591Z,77.70
2022-10-19T19:48:18.469Z,78.00
2022-10-19T19:50:21.362Z,77.70
2022-10-19T19:52:24.233Z,77.60
2022-10-19T19:54:27.333Z,77.90
2022-10-19T19:56:30.187Z,77.80
2022-10-19T19:58:34.461Z,77.70
2022-10-19T20:00:40.091Z,77.70
2022-10-19T20:02:42.997Z,77.80
2022-10-19T20:04:45.836Z,77.90
2022-10-19T20:06:49.254Z,78.00
2022-10-19T20:08:52.368Z,77.80
2022-10-19T20:10:55.485Z,77.90
2022-10-19T20:12:58.641Z,77.80
2022-10-19T20:15:02.982Z,77.80
2022-10-19T20:17:05.983Z,78.00
2022-10-19T20:19:10.973Z,78.00
2022-10-19T20:21:14.646Z,78.20
2022-10-19T20:23:17.736Z,78.00
2022-10-19T20:25:20.791Z,78.00
2022-10-19T20:27:23.671Z,77.90
2022-10-19T20:29:26.610Z,78.10
2022-10-19T20:31:31.750Z,78.00
2022-10-19T20:33:37.462Z,78.30
2022-10-19T20:35:40.597Z,78.40
2022-10-19T20:37:43.581Z,78.30
2022-10-19T20:39:47.122Z,78.20
2022-10-19T20:41:50.008Z,78.00
2022-10-19T20:43:53.895Z,78.30
2022-10-19T20:46:03.318Z,78.20
2022-10-19T20:48:07.891Z,78.00
2022-10-19T20:50:11.253Z,77.80
2022-10-19T20:52:14.335Z,78.00
2022-10-19T20:54:17.383Z,78.00
2022-10-19T20:56:23.259Z,78.10
2022-10-19T20:58:26.153Z,78.50
2022-10-19T21:00:29.164Z,78.50
2022-10-19T21:02:32.043Z,78.40
2022-10-19T21:04:36.563Z,78.30
2022-10-19T21:06:41.054Z,78.50
2022-10-19T21:08:44.053Z,78.50
2022-10-19T21:10:47.043Z,78.60
2022-10-19T21:12:50.030Z,78.70
2022-10-19T21:14:53.080Z,78.90
2022-10-19T21:16:57.498Z,78.60
2022-10-19T21:19:01.008Z,78.90
2022-10-19T21:21:13.928Z,78.70
2022-10-19T21:23:16.839Z,78.90
2022-10-19T21:25:19.868Z,78.90
2022-10-19T21:27:22.874Z,78.90
2022-10-19T21:29:27.197Z,78.80
2022-10-19T21:31:31.540Z,78.80
2022-10-19T21:33:34.699Z,78.60
2022-10-19T21:35:37.801Z,78.80
2022-10-19T21:37:42.355Z,78.90
2022-10-19T21:39:45.340Z,78.90
2022-10-19T21:41:49.089Z,78.90
2022-10-19T21:43:52.387Z,78.90
2022-10-19T21:45:55.550Z,78.90
2022-10-19T21:47:58.688Z,78.90
2022-10-19T21:50:01.724Z,78.90
2022-10-19T21:52:05.017Z,78.90
2022-10-19T21:54:12.826Z,78.90
2022-10-19T21:56:16.951Z,79.00
2022-10-19T21:58:21.636Z,79.00
2022-10-19T22:00:24.531Z,79.00
2022-10-19T22:02:27.455Z,79.00
2022-10-19T22:04:32.929Z,79.00
2022-10-19T22:06:37.166Z,78.90
2022-10-19T22:08:40.706Z,79.10
2022-10-19T22:10:45.231Z,79.30
2022-10-19T22:12:48.148Z,79.20
2022-10-19T22:14:51.034Z,79.30
2022-10-19T22:16:53.978Z,79.30
2022-10-19T22:18:57.733Z,79.50
2022-10-19T22:21:04.349Z,79.60
2022-10-19T22:23:08.858Z,79.80
2022-10-19T22:25:11.764Z,79.70
2022-10-19T22:27:16.169Z,79.50
2022-10-19T22:29:19.158Z,79.60
2022-10-19T22:31:22.115Z,79.60
2022-10-19T22:33:25.664Z,79.60
2022-10-19T22:35:28.523Z,79.60
2022-10-19T22:37:31.409Z,79.60
2022-10-19T22:39:34.417Z,79.60
2022-10-19T22:41:37.303Z,79.80
2022-10-19T22:43:41.479Z,80.00
2022-10-19T22:45:47.263Z,80.10
2022-10-19T22:47:50.371Z,80.30
2022-10-19T22:49:53.451Z,80.40
2022-10-19T22:51:56.415Z,80.50
2022-10-19T22:53:59.294Z,80.40
2022-10-19T22:56:02.592Z,80.60
2022-10-19T22:58:05.936Z,80.80
2022-10-19T23:00:11.912Z,80.70
2022-10-19T23:02:14.847Z,80.80
2022-10-19T23:04:17.807Z,80.70
2022-10-19T23:06:20.755Z,80.70
2022-10-19T23:08:23.805Z,80.80
2022-10-19T23:10:26.689Z,81.60
2022-10-19T23:12:29.643Z,81.10
2022-10-19T23:14:32.512Z,81.00
2022-10-19T23:16:36.772Z,81.20
2022-10-19T23:18:41.442Z,81.20
2022-10-19T23:20:44.681Z,81.30
2022-10-19T23:22:47.640Z,81.20
2022-10-19T23:24:50.562Z,81.20
2022-10-19T23:26:53.813Z,81.10
2022-10-19T23:28:56.603Z,81.30
2022-10-19T23:31:00.021Z,81.20
2022-10-19T23:33:04.316Z,81.00
2022-10-19T23:35:08.334Z,81.00
2022-10-19T23:37:11.232Z,81.20
2022-10-19T23:39:14.059Z,81.10
2022-10-19T23:41:17.922Z,81.00
2022-10-19T23:43:20.773Z,81.20
2022-10-19T23:45:23.723Z,81.10
2022-10-19T23:47:26.875Z,81.10
2022-10-19T23:49:31.491Z,81.60
2022-10-19T23:51:34.432Z,81.10
2022-10-19T23:53:41.064Z,81.00
2022-10-19T23:55:44.816Z,81.20
2022-10-19T23:57:47.899Z,81.30
2022-10-19T23:59:50.966Z,81.20
